Main page
Satellite images 15-day forecastsClimateMarine weather Cyclones Lightning AirportsFAQ Newsletter About
Weather : Europe Africa North America South America Asia Australia-Oceania Others
Languages Contact

Rovaniemi, Finland

latitude: 66-34N, longitude: 025-50E, elevation: 197 m


METAR: EFRO 181820Z AUTO 21007KT CAVOK 02/M04 Q1012
short-TAF: out of date (33075 hours)
long-TAF: EFRO 181732Z 1818/1918 25006KT CAVOK BECMG 1905/1907 21010G22KT TEMPO 1906/1909 7000 -RA

Time: 21:49 (18:49 UTC)

Current weather observation

The report was made 29 minutes ago, at 18:20 UTC  
Wind 07 kt from south/southwest
Temperature 2°C
Humidity 64%
Pressure 1012 hPa
Visibility 10 km or more
no clouds below 1500 m and no cumulonimbus

Change units

Forecast

The report was made 1 hour and 7 minutes ago, at 17:42 UTC  
Forecast valid from 18 at 18 UTC to 19 at 18 UTC
Wind 06 kt from west/southwest
Visibility 10 km or more
no clouds below 1500 m and no cumulonimbus
Becoming
from 19 at 05 UTC to 19 at 07 UTC
Wind 10 kt from south/southwest with gusts up to 22 kt
Temporary
from 19 at 06 UTC to 19 at 09 UTC
Visibility 7000 m
light rain
The information on this site is subject to a disclaimer
Weather : Europe Africa North America South America Asia Australia-Oceania Others
Satellite images 15-day forecastsClimateMarine weather Cyclones Lightning AirportsFAQ Languages Contact Newsletter About